createdAt,value
2018-07-09T00:00:37.592Z,23.40
2018-07-09T00:03:11.518Z,23.40
2018-07-09T00:08:28.326Z,23.40
2018-07-09T00:11:08.383Z,23.30
2018-07-09T00:13:39.908Z,23.30
2018-07-09T00:16:11.363Z,23.20
2018-07-09T00:18:42.752Z,23.00
2018-07-09T00:21:14.138Z,23.00
2018-07-09T00:23:45.362Z,22.90
2018-07-09T00:26:16.886Z,22.80
2018-07-09T00:28:49.018Z,22.80
2018-07-09T00:36:08.062Z,22.70
2018-07-09T00:38:39.447Z,22.60
2018-07-09T00:41:10.815Z,22.60
2018-07-09T00:43:42.065Z,22.80
2018-07-09T00:46:13.512Z,22.80
2018-07-09T00:48:44.816Z,22.80
2018-07-09T00:51:16.266Z,22.60
2018-07-09T00:53:47.819Z,22.70
2018-07-09T00:56:19.304Z,22.60
2018-07-09T00:58:50.956Z,22.60
2018-07-09T01:01:22.230Z,22.60
2018-07-09T01:03:53.523Z,22.70
2018-07-09T01:06:25.180Z,22.70
2018-07-09T01:08:56.427Z,22.70
2018-07-09T01:11:45.861Z,22.60
2018-07-09T01:14:17.140Z,22.60
2018-07-09T01:16:48.169Z,22.50
2018-07-09T01:19:19.852Z,22.50
2018-07-09T01:21:51.900Z,22.50
2018-07-09T01:24:23.059Z,22.60
2018-07-09T01:26:54.969Z,22.60
2018-07-09T01:29:26.575Z,22.50
2018-07-09T01:31:57.763Z,22.50
2018-07-09T01:34:28.862Z,22.40
2018-07-09T01:37:00.210Z,22.30
2018-07-09T01:39:31.467Z,22.40
2018-07-09T01:42:02.807Z,22.40
2018-07-09T01:44:34.666Z,22.10
2018-07-09T01:47:05.807Z,22.00
2018-07-09T01:49:37.067Z,22.00
2018-07-09T01:52:08.233Z,22.10
2018-07-09T01:54:40.339Z,22.20
2018-07-09T01:57:11.511Z,22.00
2018-07-09T01:59:42.964Z,21.90
2018-07-09T02:02:14.108Z,21.80
2018-07-09T02:04:45.303Z,21.80
2018-07-09T02:07:16.588Z,21.70
2018-07-09T02:09:47.903Z,21.70
2018-07-09T02:12:19.505Z,21.70
2018-07-09T02:14:50.864Z,21.70
2018-07-09T02:17:22.109Z,21.70
2018-07-09T02:19:53.335Z,21.70
2018-07-09T02:22:24.700Z,21.60
2018-07-09T02:24:55.831Z,21.60
2018-07-09T02:27:27.088Z,21.60
2018-07-09T02:29:58.436Z,21.50
2018-07-09T02:32:29.791Z,21.50
2018-07-09T02:35:01.456Z,21.40
2018-07-09T02:37:32.595Z,21.40
2018-07-09T02:40:03.815Z,21.60
2018-07-09T02:42:35.282Z,21.50
2018-07-09T02:45:06.767Z,21.40
2018-07-09T02:47:38.132Z,21.50
2018-07-09T02:50:09.494Z,21.50
2018-07-09T02:52:42.000Z,21.50
2018-07-09T02:55:13.599Z,21.30
2018-07-09T02:57:44.660Z,21.30
2018-07-09T03:00:15.907Z,21.20
2018-07-09T03:02:47.630Z,21.20
2018-07-09T03:05:19.068Z,21.30
2018-07-09T03:07:50.472Z,21.20
2018-07-09T03:10:21.775Z,21.10
2018-07-09T03:12:53.011Z,21.10
2018-07-09T03:15:24.252Z,20.90
2018-07-09T03:17:55.399Z,20.80
2018-07-09T03:20:26.803Z,20.80
2018-07-09T03:22:58.215Z,20.80
2018-07-09T03:25:29.873Z,20.80
2018-07-09T03:28:01.623Z,20.80
2018-07-09T03:30:32.764Z,20.70
2018-07-09T03:33:04.384Z,20.70
2018-07-09T03:35:35.971Z,20.70
2018-07-09T03:38:07.293Z,20.70
2018-07-09T03:40:39.041Z,20.70
2018-07-09T03:44:12.949Z,20.70
2018-07-09T03:46:44.009Z,20.70
2018-07-09T03:49:15.319Z,20.60
2018-07-09T03:51:46.792Z,20.60
2018-07-09T03:54:18.188Z,20.60
2018-07-09T03:56:49.582Z,20.60
2018-07-09T03:59:20.932Z,20.60
2018-07-09T04:01:52.285Z,20.50
2018-07-09T04:04:24.283Z,20.50
2018-07-09T04:06:55.644Z,20.50
2018-07-09T04:09:27.104Z,20.50
2018-07-09T04:11:58.279Z,20.50
2018-07-09T04:14:29.491Z,20.40
2018-07-09T04:17:00.642Z,20.40
2018-07-09T04:19:31.792Z,20.40
2018-07-09T04:22:03.020Z,20.40
2018-07-09T04:24:34.207Z,20.50
2018-07-09T04:27:05.413Z,20.50
2018-07-09T04:29:36.756Z,20.40
2018-07-09T04:32:07.879Z,20.20
2018-07-09T04:34:39.459Z,20.20
2018-07-09T04:39:41.540Z,20.20
2018-07-09T04:42:12.705Z,20.20
2018-07-09T04:44:43.947Z,20.10
2018-07-09T04:47:15.428Z,20.10
2018-07-09T04:52:17.326Z,20.30
2018-07-09T04:54:48.476Z,20.20
2018-07-09T04:57:19.927Z,20.20
2018-07-09T04:59:51.107Z,20.20
2018-07-09T05:02:22.516Z,20.30
2018-07-09T05:07:25.420Z,20.50
2018-07-09T05:09:56.627Z,20.60
2018-07-09T05:12:28.000Z,20.40
2018-07-09T05:14:59.257Z,20.30
2018-07-09T05:17:30.598Z,20.30
2018-07-09T05:20:01.877Z,20.30
2018-07-09T05:22:33.213Z,20.30
2018-07-09T05:25:04.435Z,20.20
2018-07-09T05:27:35.667Z,20.20
2018-07-09T05:30:07.055Z,20.30
2018-07-09T05:35:09.373Z,20.30
2018-07-09T05:37:41.007Z,20.30
2018-07-09T05:40:12.288Z,20.30
2018-07-09T05:42:44.358Z,20.30
2018-07-09T05:45:15.507Z,20.30
2018-07-09T05:47:47.144Z,20.50
2018-07-09T05:52:49.690Z,20.60
2018-07-09T05:55:21.005Z,20.70
2018-07-09T05:57:52.201Z,20.80
2018-07-09T06:00:23.285Z,20.80
2018-07-09T06:02:54.936Z,20.90
2018-07-09T06:05:26.065Z,20.90
2018-07-09T06:07:58.215Z,20.90
2018-07-09T06:10:29.407Z,21.00
2018-07-09T06:13:00.607Z,21.00
2018-07-09T06:15:31.746Z,21.00
2018-07-09T06:18:03.151Z,21.10
2018-07-09T06:20:34.374Z,21.20
2018-07-09T06:23:05.990Z,21.30
2018-07-09T06:25:37.141Z,21.40
2018-07-09T06:28:08.501Z,21.50
2018-07-09T06:30:40.345Z,21.60
2018-07-09T06:33:12.556Z,21.70
2018-07-09T06:35:43.819Z,21.90
2018-07-09T06:38:15.303Z,22.10
2018-07-09T06:40:47.320Z,22.20
2018-07-09T06:43:18.600Z,22.50
2018-07-09T06:45:53.019Z,22.50
2018-07-09T06:50:54.935Z,22.60
2018-07-09T06:53:26.135Z,22.60
2018-07-09T06:55:57.535Z,22.60
2018-07-09T06:58:28.882Z,22.70
2018-07-09T07:01:00.138Z,22.90
2018-07-09T07:03:31.675Z,23.00
2018-07-09T07:06:03.131Z,23.00
2018-07-09T07:08:34.529Z,23.00
2018-07-09T07:11:06.120Z,23.10
2018-07-09T07:16:08.256Z,23.20
2018-07-09T07:18:39.501Z,23.60
2018-07-09T07:21:10.652Z,23.60
2018-07-09T07:23:42.252Z,23.60
2018-07-09T07:26:13.827Z,23.90
2018-07-09T07:28:45.170Z,23.90
2018-07-09T07:31:16.504Z,23.90
2018-07-09T07:33:47.763Z,24.00
2018-07-09T07:36:19.224Z,24.10
2018-07-09T07:38:50.396Z,24.20
2018-07-09T07:41:22.327Z,24.30
2018-07-09T07:43:53.718Z,24.70
2018-07-09T07:46:25.087Z,24.80
2018-07-09T07:48:56.428Z,24.70
2018-07-09T07:51:27.560Z,24.80
2018-07-09T07:56:29.449Z,24.60
2018-07-09T07:59:01.092Z,24.70
2018-07-09T08:01:32.204Z,24.70
2018-07-09T08:04:03.399Z,24.80
2018-07-09T08:06:34.754Z,25.30
2018-07-09T08:09:06.401Z,25.50
2018-07-09T08:11:48.567Z,25.70
2018-07-09T08:14:09.391Z,26.40
2018-07-09T08:16:40.740Z,26.40
2018-07-09T08:19:12.212Z,26.10
2018-07-09T08:21:43.336Z,26.10
2018-07-09T08:24:14.800Z,25.90
2018-07-09T08:26:45.903Z,26.20
2018-07-09T08:29:17.330Z,26.50
2018-07-09T08:31:48.654Z,26.30
2018-07-09T08:34:19.630Z,26.40
2018-07-09T08:36:50.679Z,26.40
2018-07-09T08:39:22.216Z,26.60
2018-07-09T08:46:31.822Z,26.60
2018-07-09T08:49:03.315Z,26.60
2018-07-09T08:51:34.439Z,26.70
2018-07-09T08:54:05.949Z,26.60
2018-07-09T08:56:37.196Z,26.50
2018-07-09T08:59:08.238Z,26.70
2018-07-09T09:01:39.576Z,26.80
2018-07-09T09:04:11.007Z,27.20
2018-07-09T09:06:42.636Z,27.20
2018-07-09T09:09:13.985Z,27.30
2018-07-09T09:11:45.159Z,27.50
2018-07-09T09:15:19.218Z,27.80
2018-07-09T09:17:50.411Z,27.70
2018-07-09T09:20:21.505Z,28.30
2018-07-09T09:22:52.651Z,28.10
2018-07-09T09:25:24.068Z,28.50
2018-07-09T09:27:55.203Z,28.50
2018-07-09T09:30:26.604Z,28.50
2018-07-09T09:32:57.774Z,28.80
2018-07-09T09:35:29.224Z,28.50
2018-07-09T09:38:00.552Z,29.20
2018-07-09T09:43:02.396Z,29.10
2018-07-09T09:45:33.760Z,28.50
2018-07-09T09:48:05.118Z,28.60
2018-07-09T09:50:37.165Z,28.50
2018-07-09T09:53:09.255Z,28.80
2018-07-09T09:55:40.651Z,29.50
2018-07-09T09:58:12.047Z,29.30
2018-07-09T10:00:48.552Z,29.00
2018-07-09T10:03:20.004Z,29.70
2018-07-09T10:05:51.312Z,30.40
2018-07-09T10:08:22.303Z,29.90
2018-07-09T10:10:53.508Z,29.40
2018-07-09T10:13:24.704Z,29.90
2018-07-09T10:15:55.894Z,30.00
2018-07-09T10:18:27.103Z,30.00
2018-07-09T10:20:58.336Z,30.10
2018-07-09T10:23:29.576Z,29.80
2018-07-09T10:26:01.147Z,30.00
2018-07-09T10:28:33.304Z,30.00
2018-07-09T10:31:04.640Z,30.00
2018-07-09T10:33:36.011Z,29.60
2018-07-09T10:36:07.604Z,29.70
2018-07-09T10:38:38.860Z,30.50
2018-07-09T10:41:11.008Z,30.20
2018-07-09T10:43:42.324Z,30.20
2018-07-09T10:46:13.347Z,30.10
2018-07-09T10:48:44.544Z,30.00
2018-07-09T10:51:15.943Z,30.40
2018-07-09T10:53:47.140Z,30.20
2018-07-09T10:56:18.763Z,29.90
2018-07-09T10:58:50.144Z,30.30
2018-07-09T11:01:21.306Z,30.20
2018-07-09T11:03:52.657Z,30.50
2018-07-09T11:06:23.695Z,31.00
2018-07-09T11:08:55.510Z,31.30
2018-07-09T11:11:26.621Z,32.00
2018-07-09T11:13:58.047Z,32.10
2018-07-09T11:16:29.247Z,32.30
2018-07-09T11:19:00.391Z,32.80
2018-07-09T11:21:31.603Z,32.50
2018-07-09T11:24:03.074Z,31.50
2018-07-09T11:26:34.843Z,30.90
2018-07-09T11:29:06.080Z,30.60
2018-07-09T11:31:37.195Z,30.90
2018-07-09T11:34:08.880Z,31.20
2018-07-09T11:36:40.128Z,31.60
2018-07-09T11:39:11.784Z,32.00
2018-07-09T11:41:42.930Z,31.40
2018-07-09T11:44:14.348Z,32.20
2018-07-09T11:46:45.693Z,32.30
2018-07-09T11:49:16.894Z,32.40
2018-07-09T11:51:48.275Z,32.20
2018-07-09T11:54:19.476Z,32.80
2018-07-09T11:56:50.595Z,31.60
2018-07-09T11:59:21.866Z,31.20
2018-07-09T12:01:53.202Z,30.80
2018-07-09T12:06:55.277Z,31.20
2018-07-09T12:09:26.846Z,31.10
2018-07-09T12:11:58.272Z,30.80
2018-07-09T12:14:29.609Z,31.10
2018-07-09T12:17:00.792Z,31.80
2018-07-09T12:19:31.959Z,32.70
2018-07-09T12:22:03.334Z,33.20
2018-07-09T12:24:35.031Z,33.00
2018-07-09T12:27:06.563Z,32.80
2018-07-09T12:29:38.020Z,32.50
2018-07-09T12:32:09.311Z,32.90
2018-07-09T12:34:40.751Z,32.60
2018-07-09T12:37:12.171Z,32.90
2018-07-09T12:39:43.816Z,32.70
2018-07-09T12:42:15.002Z,32.40
2018-07-09T12:44:46.048Z,32.00
2018-07-09T12:47:17.256Z,31.80
2018-07-09T12:49:48.929Z,32.20
2018-07-09T12:52:20.197Z,32.60
2018-07-09T12:54:51.439Z,32.40
2018-07-09T12:57:23.043Z,32.10
2018-07-09T12:59:54.567Z,32.70
2018-07-09T13:02:25.973Z,32.70
2018-07-09T13:04:57.624Z,32.90
2018-07-09T13:07:28.908Z,33.00
2018-07-09T13:10:00.628Z,32.50
2018-07-09T13:12:31.704Z,33.00
2018-07-09T13:15:03.172Z,33.40
2018-07-09T13:17:34.527Z,33.10
2018-07-09T13:20:05.959Z,32.90
2018-07-09T13:22:44.023Z,32.80
2018-07-09T13:25:15.312Z,32.30
2018-07-09T13:27:46.623Z,32.30
2018-07-09T13:32:49.048Z,32.20
2018-07-09T13:35:22.310Z,32.10
2018-07-09T13:37:53.812Z,32.10
2018-07-09T13:40:25.260Z,32.90
2018-07-09T13:42:56.497Z,32.60
2018-07-09T13:45:27.804Z,32.50
2018-07-09T13:47:59.270Z,32.40
2018-07-09T13:50:30.712Z,32.40
2018-07-09T13:53:02.306Z,32.40
2018-07-09T13:55:33.775Z,32.20
2018-07-09T13:58:04.998Z,32.50
2018-07-09T14:00:36.319Z,32.70
2018-07-09T14:03:07.898Z,32.80
2018-07-09T14:05:39.315Z,32.70
2018-07-09T14:08:10.313Z,32.50
2018-07-09T14:10:41.711Z,32.00
2018-07-09T14:13:12.911Z,31.80
2018-07-09T14:15:44.288Z,31.00
2018-07-09T14:18:15.915Z,31.30
2018-07-09T14:20:47.140Z,31.10
2018-07-09T14:23:19.772Z,31.30
2018-07-09T14:25:50.811Z,31.40
2018-07-09T14:28:22.009Z,31.80
2018-07-09T14:30:53.380Z,32.10
2018-07-09T14:33:24.401Z,32.10
2018-07-09T14:35:56.409Z,32.10
2018-07-09T14:38:27.570Z,31.90
2018-07-09T14:40:59.274Z,31.70
2018-07-09T14:43:30.331Z,32.00
2018-07-09T14:46:01.527Z,32.10
2018-07-09T14:48:32.903Z,32.00
2018-07-09T14:51:04.976Z,31.70
2018-07-09T14:53:36.268Z,31.60
2018-07-09T14:56:07.751Z,31.80
2018-07-09T14:58:38.838Z,32.00
2018-07-09T15:01:10.089Z,31.90
2018-07-09T15:03:41.224Z,31.70
2018-07-09T15:06:12.469Z,31.50
2018-07-09T15:08:43.611Z,31.50
2018-07-09T15:11:15.047Z,31.30
2018-07-09T15:13:46.416Z,31.80
2018-07-09T15:16:17.632Z,31.60
2018-07-09T15:18:48.959Z,31.40
2018-07-09T15:21:20.207Z,31.30
2018-07-09T15:23:51.350Z,31.10
2018-07-09T15:26:22.783Z,31.00
2018-07-09T15:28:54.149Z,31.10
2018-07-09T15:31:25.339Z,31.10
2018-07-09T15:33:56.540Z,31.10
2018-07-09T15:36:27.938Z,31.30
2018-07-09T15:38:59.344Z,31.00
2018-07-09T15:41:30.936Z,30.90
2018-07-09T15:44:04.700Z,30.70
2018-07-09T15:46:35.793Z,30.60
2018-07-09T15:49:07.307Z,30.70
2018-07-09T15:51:38.851Z,30.80
2018-07-09T15:54:09.976Z,30.90
2018-07-09T15:56:41.382Z,31.30
2018-07-09T15:59:12.831Z,31.20
2018-07-09T16:01:44.128Z,31.10
2018-07-09T16:04:15.135Z,30.90
2018-07-09T16:06:46.540Z,31.00
2018-07-09T16:09:17.819Z,30.90
2018-07-09T16:14:19.769Z,30.70
2018-07-09T16:16:51.154Z,30.70
2018-07-09T16:19:22.979Z,30.60
2018-07-09T16:21:54.531Z,30.70
2018-07-09T16:24:25.671Z,30.70
2018-07-09T16:26:56.867Z,30.60
2018-07-09T16:29:28.293Z,30.30
2018-07-09T16:31:59.410Z,30.10
2018-07-09T16:34:31.390Z,30.20
2018-07-09T16:37:02.585Z,30.30
2018-07-09T16:39:34.325Z,30.20
2018-07-09T16:42:05.461Z,30.30
2018-07-09T16:44:36.756Z,30.30
2018-07-09T16:47:08.055Z,30.30
2018-07-09T16:49:39.322Z,30.20
2018-07-09T16:52:10.462Z,30.30
2018-07-09T16:54:41.551Z,30.40
2018-07-09T16:57:13.208Z,30.40
2018-07-09T16:59:44.801Z,30.20
2018-07-09T17:02:16.116Z,30.00
2018-07-09T17:04:47.297Z,30.10
2018-07-09T17:07:19.507Z,30.50
2018-07-09T17:09:50.824Z,30.50
2018-07-09T17:12:21.864Z,30.20
2018-07-09T17:14:53.203Z,30.20
2018-07-09T17:17:24.305Z,30.10
2018-07-09T17:19:55.456Z,30.20
2018-07-09T17:22:26.856Z,30.10
2018-07-09T17:24:58.445Z,30.10
2018-07-09T17:27:29.830Z,30.10
2018-07-09T17:30:01.144Z,30.00
2018-07-09T17:32:32.955Z,29.90
2018-07-09T17:35:04.223Z,29.90
2018-07-09T17:37:35.816Z,29.90
2018-07-09T17:42:37.742Z,29.80
2018-07-09T17:45:08.980Z,29.70
2018-07-09T17:47:40.740Z,29.60
2018-07-09T17:50:11.923Z,29.60
2018-07-09T17:52:43.539Z,29.60
2018-07-09T17:55:14.684Z,29.50
2018-07-09T17:57:46.255Z,29.50
2018-07-09T18:00:17.452Z,29.60
2018-07-09T18:02:48.864Z,29.60
2018-07-09T18:05:20.183Z,29.50
2018-07-09T18:07:51.433Z,29.40
2018-07-09T18:10:22.680Z,29.30
2018-07-09T18:12:53.952Z,29.30
2018-07-09T18:15:24.968Z,29.30
2018-07-09T18:17:56.268Z,29.20
2018-07-09T18:22:58.155Z,29.10
2018-07-09T18:25:29.628Z,29.10
2018-07-09T18:28:00.893Z,29.00
2018-07-09T18:30:32.123Z,28.90
2018-07-09T18:33:03.398Z,28.80
2018-07-09T18:35:34.891Z,28.80
2018-07-09T18:38:06.271Z,28.80
2018-07-09T18:40:37.468Z,28.70
2018-07-09T18:43:08.848Z,28.70
2018-07-09T18:45:40.300Z,28.60
2018-07-09T18:48:11.820Z,28.60
2018-07-09T18:50:43.247Z,28.50
2018-07-09T18:53:14.677Z,28.40
2018-07-09T18:55:46.039Z,28.30
2018-07-09T18:58:17.469Z,28.50
2018-07-09T19:00:48.600Z,28.40
2018-07-09T19:03:20.298Z,28.30
2018-07-09T19:06:58.596Z,28.20
2018-07-09T19:09:30.706Z,28.20
2018-07-09T19:12:04.195Z,28.20
2018-07-09T19:14:45.714Z,28.20
2018-07-09T19:18:04.081Z,28.10
2018-07-09T19:21:50.500Z,28.00
2018-07-09T19:24:19.093Z,27.80
2018-07-09T19:26:47.869Z,27.70
2018-07-09T19:29:16.491Z,27.70
2018-07-09T19:31:44.929Z,27.60
2018-07-09T19:34:13.554Z,27.60
2018-07-09T19:36:42.321Z,27.50
2018-07-09T19:39:11.753Z,27.50
2018-07-09T19:41:40.445Z,27.40
2018-07-09T19:44:08.963Z,27.40
2018-07-09T19:46:37.317Z,27.40
2018-07-09T19:49:05.949Z,27.30
2018-07-09T19:51:34.801Z,27.20
2018-07-09T19:54:03.696Z,27.20
2018-07-09T19:56:32.364Z,27.10
2018-07-09T19:59:00.814Z,27.10
2018-07-09T20:01:29.410Z,27.00
2018-07-09T20:03:58.057Z,26.90
2018-07-09T20:06:26.688Z,27.00
2018-07-09T20:08:59.881Z,26.90
2018-07-09T20:11:33.189Z,26.70
2018-07-09T20:14:06.596Z,26.60
2018-07-09T20:16:39.706Z,26.40
2018-07-09T20:19:08.568Z,26.30
2018-07-09T20:21:38.375Z,26.20
2018-07-09T20:24:07.790Z,26.10
2018-07-09T20:26:36.543Z,26.00
2018-07-09T20:29:05.278Z,26.00
2018-07-09T20:31:34.012Z,25.90
2018-07-09T20:34:02.369Z,25.90
2018-07-09T20:36:31.083Z,25.80
2018-07-09T20:38:59.916Z,25.80
2018-07-09T20:41:28.288Z,25.80
2018-07-09T20:43:57.384Z,25.70
2018-07-09T20:46:26.019Z,25.60
2018-07-09T20:48:55.834Z,25.50
2018-07-09T20:51:24.470Z,25.50
2018-07-09T20:53:53.106Z,25.50
2018-07-09T20:56:21.940Z,25.40
2018-07-09T20:58:50.572Z,25.30
2018-07-09T21:01:19.417Z,25.30
2018-07-09T21:03:48.170Z,25.30
2018-07-09T21:06:17.069Z,25.30
2018-07-09T21:08:46.693Z,25.30
2018-07-09T21:11:15.115Z,25.30
2018-07-09T21:13:43.640Z,25.10
2018-07-09T21:16:12.545Z,25.10
2018-07-09T21:18:41.233Z,25.00
2018-07-09T21:21:09.594Z,24.90
2018-07-09T21:23:38.785Z,24.90
2018-07-09T21:26:07.336Z,24.80
2018-07-09T21:28:36.391Z,24.80
2018-07-09T21:31:04.990Z,24.70
2018-07-09T21:33:33.427Z,24.70
2018-07-09T21:36:02.272Z,24.70
2018-07-09T21:38:31.103Z,24.70
2018-07-09T21:40:59.458Z,24.70
2018-07-09T21:43:27.999Z,24.60
2018-07-09T21:45:56.480Z,24.50
2018-07-09T21:48:29.783Z,24.50
2018-07-09T21:50:53.887Z,24.50
2018-07-09T21:53:23.506Z,24.50
2018-07-09T21:55:52.070Z,24.50
2018-07-09T22:00:50.363Z,24.50
2018-07-09T22:03:19.341Z,24.50
2018-07-09T22:05:48.410Z,24.50
2018-07-09T22:08:17.075Z,24.50
2018-07-09T22:10:45.922Z,24.50
2018-07-09T22:13:14.557Z,24.40
2018-07-09T22:15:43.680Z,24.40
2018-07-09T22:18:12.023Z,24.40
2018-07-09T22:20:40.652Z,24.40
2018-07-09T22:23:09.497Z,24.50
2018-07-09T22:25:38.406Z,24.50
2018-07-09T22:28:07.157Z,24.30
2018-07-09T22:30:38.384Z,24.20
2018-07-09T22:33:10.870Z,24.10
2018-07-09T22:35:42.104Z,24.10
2018-07-09T22:38:13.575Z,24.00
2018-07-09T22:40:44.703Z,24.00
2018-07-09T22:44:26.363Z,23.90
2018-07-09T22:46:57.849Z,23.90
2018-07-09T22:49:29.252Z,23.80
2018-07-09T22:52:01.120Z,23.80
2018-07-09T22:57:03.672Z,23.80
2018-07-09T22:59:34.832Z,23.90
2018-07-09T23:02:06.048Z,23.90
2018-07-09T23:04:37.441Z,23.90
2018-07-09T23:07:09.614Z,23.80
2018-07-09T23:10:06.484Z,23.80
2018-07-09T23:15:02.154Z,23.70
2018-07-09T23:17:49.297Z,23.60
2018-07-09T23:22:31.051Z,23.50
2018-07-09T23:24:59.691Z,23.50
2018-07-09T23:27:29.309Z,23.40
2018-07-09T23:29:58.001Z,23.40
2018-07-09T23:32:26.377Z,23.20
2018-07-09T23:34:54.814Z,23.20
2018-07-09T23:37:23.444Z,23.10
2018-07-09T23:39:52.284Z,23.10
2018-07-09T23:42:20.981Z,23.00
2018-07-09T23:44:49.752Z,22.90
2018-07-09T23:47:18.975Z,22.90
2018-07-09T23:49:47.551Z,22.90
2018-07-09T23:54:44.671Z,22.80
2018-07-09T23:59:35.480Z,22.80
